createdAt,value
2023-06-26T00:00:58.566Z,3.75
2023-06-26T00:03:30.430Z,3.78
2023-06-26T00:06:02.017Z,3.78
2023-06-26T00:08:32.802Z,5.13
2023-06-26T00:11:05.658Z,3.75
2023-06-26T00:13:38.614Z,4.18
2023-06-26T00:16:08.934Z,3.63
2023-06-26T00:18:39.257Z,3.85
2023-06-26T00:23:40.733Z,4.22
2023-06-26T00:26:14.072Z,3.92
2023-06-26T00:28:44.422Z,4.13
2023-06-26T00:31:14.784Z,3.72
2023-06-26T00:33:45.075Z,3.85
2023-06-26T00:36:15.804Z,4.60
2023-06-26T00:38:49.105Z,4.28
2023-06-26T00:41:22.059Z,4.72
2023-06-26T00:43:52.595Z,4.28
2023-06-26T00:46:22.968Z,4.15
2023-06-26T00:48:53.628Z,3.95
2023-06-26T00:51:24.443Z,4.10
2023-06-26T00:53:55.053Z,4.15
2023-06-26T00:56:28.406Z,4.13
2023-06-26T00:58:58.685Z,4.03
2023-06-26T01:01:29.069Z,4.47
2023-06-26T01:03:59.406Z,3.90
2023-06-26T01:06:32.823Z,4.13
2023-06-26T01:09:04.177Z,4.13
2023-06-26T01:11:37.076Z,4.32
2023-06-26T01:14:07.505Z,4.15
2023-06-26T01:16:39.317Z,4.20
2023-06-26T01:19:26.131Z,4.65
2023-06-26T01:22:18.399Z,4.22
2023-06-26T01:25:10.721Z,4.13
2023-06-26T01:27:44.340Z,4.25
2023-06-26T01:30:16.303Z,4.63
2023-06-26T01:32:47.697Z,3.65
2023-06-26T01:35:19.405Z,4.45
2023-06-26T01:37:49.646Z,3.78
2023-06-26T01:40:22.234Z,4.50
2023-06-26T01:42:56.331Z,3.92
2023-06-26T01:45:33.709Z,4.82
2023-06-26T01:48:14.053Z,4.20
2023-06-26T01:50:44.722Z,4.40
2023-06-26T01:53:20.982Z,4.22
2023-06-26T01:55:55.673Z,4.25
2023-06-26T01:58:30.302Z,4.28
2023-06-26T02:01:00.905Z,4.25
2023-06-26T02:03:31.961Z,4.28
2023-06-26T02:06:02.234Z,5.32
2023-06-26T02:08:32.578Z,4.30
2023-06-26T02:13:35.461Z,5.15
2023-06-26T02:16:05.780Z,4.20
2023-06-26T02:21:07.814Z,3.95
2023-06-26T02:23:38.583Z,4.28
2023-06-26T02:26:09.015Z,4.22
2023-06-26T02:28:41.878Z,4.93
2023-06-26T02:31:12.248Z,4.78
2023-06-26T02:33:42.646Z,4.47
2023-06-26T02:36:12.920Z,4.43
2023-06-26T02:38:43.215Z,4.60
2023-06-26T02:41:13.476Z,4.70
2023-06-26T02:46:16.380Z,4.40
2023-06-26T02:48:46.650Z,4.40
2023-06-26T02:51:17.594Z,4.47
2023-06-26T02:53:47.902Z,4.57
2023-06-26T02:56:18.415Z,5.38
2023-06-26T02:58:51.286Z,4.03
2023-06-26T03:01:21.937Z,4.72
2023-06-26T03:03:52.770Z,5.20
2023-06-26T03:06:23.145Z,4.78
2023-06-26T03:11:23.741Z,4.70
2023-06-26T03:13:56.583Z,4.88
2023-06-26T03:16:26.939Z,4.85
2023-06-26T03:18:57.261Z,4.60
2023-06-26T03:21:27.573Z,4.68
2023-06-26T03:23:57.886Z,4.55
2023-06-26T03:26:29.763Z,4.82
2023-06-26T03:29:02.626Z,4.68
2023-06-26T03:31:32.942Z,4.40
2023-06-26T03:34:03.322Z,5.25
2023-06-26T03:36:33.677Z,4.30
2023-06-26T03:39:05.375Z,4.15
2023-06-26T03:41:35.680Z,4.95
2023-06-26T03:44:08.637Z,5.05
2023-06-26T03:46:39.078Z,4.30
2023-06-26T03:49:11.044Z,4.55
2023-06-26T03:51:41.872Z,4.97
2023-06-26T03:54:12.145Z,4.53
2023-06-26T03:56:42.482Z,4.13
2023-06-26T03:59:15.406Z,4.70
2023-06-26T04:01:45.783Z,4.88
2023-06-26T04:04:16.214Z,4.82
2023-06-26T04:06:47.615Z,4.13
2023-06-26T04:09:18.457Z,5.05
2023-06-26T04:11:48.758Z,4.45
2023-06-26T04:14:21.694Z,4.80
2023-06-26T04:16:54.254Z,4.43
2023-06-26T04:19:24.571Z,3.97
2023-06-26T04:21:57.722Z,4.70
2023-06-26T04:24:27.983Z,4.22
2023-06-26T04:26:58.604Z,4.47
2023-06-26T04:29:32.066Z,4.55
2023-06-26T04:32:02.426Z,4.93
2023-06-26T04:34:33.928Z,4.72
2023-06-26T04:37:06.444Z,3.92
2023-06-26T04:39:41.164Z,4.28
2023-06-26T04:42:13.276Z,4.32
2023-06-26T04:44:46.338Z,4.10
2023-06-26T04:47:16.995Z,4.22
2023-06-26T04:49:47.642Z,4.47
2023-06-26T04:52:18.333Z,4.15
2023-06-26T04:54:48.655Z,4.53
2023-06-26T04:57:19.907Z,4.47
2023-06-26T04:59:52.795Z,3.95
2023-06-26T05:02:23.082Z,4.05
2023-06-26T05:04:53.330Z,4.43
2023-06-26T05:07:23.568Z,5.15
2023-06-26T05:09:53.875Z,4.78
2023-06-26T05:12:24.115Z,4.38
2023-06-26T05:14:56.918Z,5.05
2023-06-26T05:17:27.290Z,4.50
2023-06-26T05:19:57.611Z,4.35
2023-06-26T05:22:28.845Z,4.45
2023-06-26T05:25:04.051Z,4.55
2023-06-26T05:27:34.967Z,4.43
2023-06-26T05:30:09.165Z,4.38
2023-06-26T05:32:44.037Z,4.68
2023-06-26T05:35:15.192Z,4.32
2023-06-26T05:37:46.590Z,4.45
2023-06-26T05:40:18.825Z,4.18
2023-06-26T05:42:50.214Z,3.85
2023-06-26T05:45:23.282Z,4.28
2023-06-26T05:47:54.240Z,3.97
2023-06-26T05:50:25.628Z,4.22
2023-06-26T05:52:56.968Z,4.22
2023-06-26T05:55:28.546Z,4.47
2023-06-26T05:58:02.351Z,4.13
2023-06-26T06:00:36.483Z,4.20
2023-06-26T06:03:07.257Z,3.78
2023-06-26T06:05:37.714Z,3.90
2023-06-26T06:08:08.428Z,3.97
2023-06-26T06:10:39.436Z,4.10
2023-06-26T06:13:09.998Z,3.88
2023-06-26T06:15:45.230Z,3.75
2023-06-26T06:18:15.584Z,3.95
2023-06-26T06:20:45.813Z,3.55
2023-06-26T06:23:16.100Z,3.92
2023-06-26T06:25:46.438Z,3.85
2023-06-26T06:28:17.610Z,3.72
2023-06-26T06:30:50.800Z,3.97
2023-06-26T06:33:23.613Z,4.07
2023-06-26T06:35:54.010Z,3.97
2023-06-26T06:38:24.332Z,4.18
2023-06-26T06:40:55.166Z,3.53
2023-06-26T06:43:25.490Z,3.50
2023-06-26T06:45:58.500Z,3.83
2023-06-26T06:48:30.845Z,3.95
2023-06-26T06:51:01.174Z,4.78
2023-06-26T06:53:31.641Z,3.65
2023-06-26T06:56:01.930Z,4.10
2023-06-26T06:58:35.219Z,4.57
2023-06-26T07:01:08.213Z,3.33
2023-06-26T07:03:38.783Z,4.03
2023-06-26T07:06:09.377Z,3.55
2023-06-26T07:08:39.777Z,3.75
2023-06-26T07:11:10.025Z,4.22
2023-06-26T07:13:41.304Z,4.25
2023-06-26T07:16:16.528Z,4.30
2023-06-26T07:18:47.420Z,3.70
2023-06-26T07:21:17.791Z,4.07
2023-06-26T07:23:48.080Z,3.72
2023-06-26T07:26:26.397Z,4.07
2023-06-26T07:29:02.628Z,3.95
2023-06-26T07:31:35.543Z,4.07
2023-06-26T07:34:05.879Z,4.55
2023-06-26T07:36:36.151Z,3.70
2023-06-26T07:39:06.639Z,3.95
2023-06-26T07:41:37.047Z,4.15
2023-06-26T07:44:07.722Z,4.10
2023-06-26T07:46:40.700Z,3.67
2023-06-26T07:49:11.159Z,4.18
2023-06-26T07:51:41.695Z,4.57
2023-06-26T07:54:12.060Z,3.22
2023-06-26T07:56:58.349Z,4.25
2023-06-26T07:59:30.698Z,3.78
2023-06-26T08:02:07.155Z,3.88
2023-06-26T08:04:37.773Z,4.00
2023-06-26T08:07:09.019Z,3.22
2023-06-26T08:09:39.386Z,4.03
2023-06-26T08:12:13.323Z,3.60
2023-06-26T08:14:43.948Z,3.33
2023-06-26T08:17:16.831Z,3.92
2023-06-26T08:19:46.976Z,3.65
2023-06-26T08:22:17.337Z,3.90
2023-06-26T08:24:47.954Z,4.25
2023-06-26T08:27:18.483Z,3.67
2023-06-26T08:29:48.808Z,4.05
2023-06-26T08:32:23.506Z,3.67
2023-06-26T08:34:54.157Z,3.67
2023-06-26T08:37:24.433Z,3.58
2023-06-26T08:39:54.958Z,3.85
2023-06-26T08:42:25.386Z,4.00
2023-06-26T08:45:01.763Z,3.95
2023-06-26T08:47:39.534Z,3.97
2023-06-26T08:50:14.471Z,3.67
2023-06-26T08:52:50.094Z,4.05
2023-06-26T08:55:25.650Z,3.50
2023-06-26T08:57:56.102Z,3.67
2023-06-26T09:00:27.120Z,3.47
2023-06-26T09:03:00.613Z,3.95
2023-06-26T09:05:32.936Z,3.83
2023-06-26T09:08:03.365Z,3.58
2023-06-26T09:10:33.791Z,4.03
2023-06-26T09:13:11.575Z,4.10
2023-06-26T09:15:48.713Z,3.90
2023-06-26T09:18:24.831Z,4.18
2023-06-26T09:20:58.920Z,3.65
2023-06-26T09:23:29.694Z,4.00
2023-06-26T09:26:00.661Z,3.97
2023-06-26T09:28:31.050Z,3.85
2023-06-26T09:31:08.269Z,3.92
2023-06-26T09:33:44.212Z,4.28
2023-06-26T09:36:24.869Z,3.40
2023-06-26T09:38:55.140Z,3.55
2023-06-26T09:41:25.485Z,3.70
2023-06-26T09:43:57.023Z,4.43
2023-06-26T09:46:30.875Z,3.38
2023-06-26T09:49:09.668Z,4.43
2023-06-26T09:51:41.144Z,3.70
2023-06-26T09:54:12.701Z,4.05
2023-06-26T09:56:43.537Z,3.83
2023-06-26T09:59:13.894Z,3.83
2023-06-26T10:01:45.463Z,3.75
2023-06-26T10:04:18.743Z,3.58
2023-06-26T10:06:51.247Z,3.63
2023-06-26T10:09:22.345Z,3.90
2023-06-26T10:11:59.517Z,3.55
2023-06-26T10:14:31.413Z,4.18
2023-06-26T10:17:03.982Z,3.90
2023-06-26T10:19:39.360Z,4.50
2023-06-26T10:22:10.105Z,3.58
2023-06-26T10:24:43.237Z,4.03
2023-06-26T10:27:20.166Z,4.05
2023-06-26T10:29:53.607Z,3.90
2023-06-26T10:32:25.532Z,3.80
2023-06-26T10:35:00.601Z,4.38
2023-06-26T10:37:46.020Z,4.15
2023-06-26T10:40:16.700Z,3.95
2023-06-26T10:42:49.812Z,3.88
2023-06-26T10:45:21.942Z,3.83
2023-06-26T10:47:59.078Z,4.13
2023-06-26T10:50:33.954Z,3.80
2023-06-26T10:53:15.641Z,3.75
2023-06-26T10:55:47.482Z,3.92
2023-06-26T10:58:44.953Z,4.18
2023-06-26T11:01:23.294Z,4.13
2023-06-26T11:04:06.014Z,4.75
2023-06-26T11:06:40.326Z,4.03
2023-06-26T11:09:15.670Z,3.85
2023-06-26T11:12:06.201Z,3.97
2023-06-26T11:14:37.395Z,4.25
2023-06-26T11:17:08.703Z,3.97
2023-06-26T11:19:39.412Z,4.70
2023-06-26T11:22:12.332Z,3.90
2023-06-26T11:24:42.763Z,3.97
2023-06-26T11:27:13.102Z,3.85
2023-06-26T11:29:52.143Z,3.63
2023-06-26T11:32:22.586Z,3.53
2023-06-26T11:34:52.977Z,3.90
2023-06-26T11:37:26.078Z,4.20
2023-06-26T11:39:56.765Z,3.70
2023-06-26T11:42:28.878Z,4.05
2023-06-26T11:44:59.202Z,3.90
2023-06-26T11:47:30.223Z,4.03
2023-06-26T11:50:00.525Z,4.20
2023-06-26T11:52:34.345Z,3.97
2023-06-26T11:55:04.753Z,4.07
2023-06-26T11:57:35.091Z,4.00
2023-06-26T12:00:18.186Z,4.32
2023-06-26T12:02:49.261Z,4.57
2023-06-26T12:05:20.925Z,4.05
2023-06-26T12:07:55.498Z,3.85
2023-06-26T12:10:25.886Z,4.03
2023-06-26T12:12:59.859Z,3.53
2023-06-26T12:15:30.276Z,4.05
2023-06-26T12:18:00.702Z,4.05
2023-06-26T12:20:35.048Z,3.90
2023-06-26T12:23:16.509Z,4.35
2023-06-26T12:25:53.060Z,3.78
2023-06-26T12:28:23.506Z,4.10
2023-06-26T12:31:18.272Z,4.05
2023-06-26T12:33:48.682Z,4.45
2023-06-26T12:36:19.041Z,4.35
2023-06-26T12:38:53.323Z,4.35
2023-06-26T12:41:24.153Z,4.47
2023-06-26T12:44:00.286Z,3.80
2023-06-26T12:49:21.941Z,4.60
2023-06-26T12:51:59.524Z,3.83
2023-06-26T12:54:35.940Z,4.55
2023-06-26T12:57:06.709Z,4.95
2023-06-26T12:59:38.102Z,4.65
2023-06-26T13:02:12.594Z,4.35
2023-06-26T13:04:45.760Z,4.40
2023-06-26T13:07:16.973Z,5.05
2023-06-26T13:09:50.254Z,4.10
2023-06-26T13:12:20.592Z,4.63
2023-06-26T13:14:52.950Z,4.80
2023-06-26T13:17:23.333Z,4.50
2023-06-26T13:19:53.812Z,4.47
2023-06-26T13:22:24.210Z,5.20
2023-06-26T13:25:00.182Z,4.35
2023-06-26T13:27:31.931Z,3.95
2023-06-26T13:30:03.435Z,4.20
2023-06-26T13:32:33.905Z,4.93
2023-06-26T13:35:04.942Z,5.15
2023-06-26T13:37:35.719Z,4.40
2023-06-26T13:40:11.019Z,5.43
2023-06-26T13:42:41.661Z,4.68
2023-06-26T13:45:26.719Z,4.72
2023-06-26T13:48:02.192Z,4.93
2023-06-26T13:50:44.870Z,5.45
2023-06-26T13:53:23.750Z,4.88
2023-06-26T13:55:56.699Z,5.47
2023-06-26T13:58:28.287Z,4.93
2023-06-26T14:00:59.151Z,5.40
2023-06-26T14:03:31.761Z,4.85
2023-06-26T14:06:02.017Z,4.88
2023-06-26T14:08:32.285Z,4.90
2023-06-26T14:11:08.040Z,4.35
2023-06-26T14:13:38.259Z,5.22
2023-06-26T14:16:09.307Z,4.80
2023-06-26T14:18:42.571Z,4.70
2023-06-26T14:21:12.958Z,4.82
2023-06-26T14:23:43.229Z,4.93
2023-06-26T14:26:19.439Z,4.68
2023-06-26T14:28:49.729Z,5.20
2023-06-26T14:31:20.134Z,4.50
2023-06-26T14:33:50.423Z,4.35
2023-06-26T14:36:21.668Z,4.60
2023-06-26T14:38:54.295Z,4.60
2023-06-26T14:41:30.767Z,4.45
2023-06-26T14:44:02.192Z,5.20
2023-06-26T14:46:33.042Z,4.78
2023-06-26T14:49:03.764Z,4.80
2023-06-26T14:51:34.092Z,4.22
2023-06-26T14:54:04.880Z,4.47
2023-06-26T14:56:37.781Z,4.90
2023-06-26T14:59:10.434Z,5.28
2023-06-26T15:01:40.845Z,4.95
2023-06-26T15:04:11.690Z,5.10
2023-06-26T15:06:42.442Z,5.32
2023-06-26T15:09:13.094Z,4.70
2023-06-26T15:11:45.978Z,5.07
2023-06-26T15:14:16.693Z,4.18
2023-06-26T15:16:47.391Z,4.82
2023-06-26T15:19:17.975Z,5.03
2023-06-26T15:21:48.299Z,4.85
2023-06-26T15:24:18.645Z,5.22
2023-06-26T15:26:51.614Z,5.47
2023-06-26T15:29:21.909Z,5.45
2023-06-26T15:31:52.337Z,4.93
2023-06-26T15:34:22.631Z,4.93
2023-06-26T15:36:53.101Z,4.82
2023-06-26T15:39:23.413Z,5.18
2023-06-26T15:41:56.454Z,4.72
2023-06-26T15:44:26.786Z,4.90
2023-06-26T15:46:57.407Z,5.47
2023-06-26T15:49:27.676Z,5.15
2023-06-26T15:51:57.992Z,4.70
2023-06-26T15:54:29.820Z,5.40
2023-06-26T15:57:02.687Z,5.07
2023-06-26T15:59:33.023Z,4.80
2023-06-26T16:02:03.325Z,4.45
2023-06-26T16:04:34.165Z,5.07
2023-06-26T16:07:04.403Z,5.07
2023-06-26T16:09:37.190Z,4.70
2023-06-26T16:12:12.124Z,5.30
2023-06-26T16:14:42.449Z,5.35
2023-06-26T16:17:12.906Z,4.97
2023-06-26T16:19:43.224Z,4.85
2023-06-26T16:22:13.527Z,5.70
2023-06-26T16:24:43.822Z,5.28
2023-06-26T16:27:16.852Z,5.60
2023-06-26T16:29:49.362Z,5.18
2023-06-26T16:32:19.574Z,5.25
2023-06-26T16:34:49.993Z,5.50
2023-06-26T16:37:20.287Z,5.35
2023-06-26T16:39:51.290Z,5.15
2023-06-26T16:42:26.742Z,4.82
2023-06-26T16:44:57.103Z,5.05
2023-06-26T16:47:30.033Z,4.88
2023-06-26T16:50:05.630Z,4.85
2023-06-26T16:52:36.888Z,4.75
2023-06-26T16:55:07.950Z,5.18
2023-06-26T16:57:41.063Z,4.85
2023-06-26T17:00:12.301Z,4.70
2023-06-26T17:02:42.695Z,5.82
2023-06-26T17:05:13.167Z,4.55
2023-06-26T17:07:43.435Z,4.60
2023-06-26T17:10:14.285Z,5.15
2023-06-26T17:12:47.227Z,4.70
2023-06-26T17:15:17.516Z,4.90
2023-06-26T17:17:52.727Z,4.53
2023-06-26T17:20:23.237Z,5.40
2023-06-26T17:22:53.802Z,4.45
2023-06-26T17:25:24.250Z,4.97
2023-06-26T17:27:57.332Z,5.32
2023-06-26T17:30:27.654Z,4.28
2023-06-26T17:32:58.141Z,4.75
2023-06-26T17:35:28.901Z,4.72
2023-06-26T17:37:59.517Z,5.10
2023-06-26T17:40:29.929Z,4.95
2023-06-26T17:43:03.029Z,5.22
2023-06-26T17:45:35.335Z,4.40
2023-06-26T17:48:05.770Z,4.55
2023-06-26T17:50:36.193Z,5.45
2023-06-26T17:53:08.092Z,5.25
2023-06-26T17:55:38.408Z,5.53
2023-06-26T17:58:11.320Z,4.75
2023-06-26T18:00:41.843Z,4.70
2023-06-26T18:03:12.375Z,4.97
2023-06-26T18:05:43.458Z,5.13
2023-06-26T18:08:13.956Z,5.18
2023-06-26T18:10:44.366Z,4.88
2023-06-26T18:13:17.259Z,5.65
2023-06-26T18:15:47.598Z,5.53
2023-06-26T18:18:20.366Z,6.05
2023-06-26T18:20:50.758Z,5.85
2023-06-26T18:23:21.507Z,5.47
2023-06-26T18:25:51.894Z,6.03
2023-06-26T18:28:25.368Z,5.80
2023-06-26T18:30:58.256Z,5.47
2023-06-26T18:33:29.858Z,5.55
2023-06-26T18:36:00.192Z,5.78
2023-06-26T18:38:33.900Z,5.45
2023-06-26T18:41:04.384Z,6.00
2023-06-26T18:43:37.284Z,6.30
2023-06-26T18:46:20.887Z,6.15
2023-06-26T18:48:51.591Z,6.30
2023-06-26T18:51:21.999Z,5.90
2023-06-26T18:53:52.482Z,5.78
2023-06-26T18:56:22.795Z,5.82
2023-06-26T18:58:56.803Z,5.45
2023-06-26T19:01:27.266Z,5.75
2023-06-26T19:04:00.389Z,5.90
2023-06-26T19:06:30.792Z,5.95
2023-06-26T19:09:01.234Z,6.10
2023-06-26T19:11:31.545Z,6.10
2023-06-26T19:14:07.334Z,6.50
2023-06-26T19:16:37.670Z,6.90
2023-06-26T19:19:08.032Z,6.03
2023-06-26T19:21:38.298Z,5.95
2023-06-26T19:24:09.038Z,6.07
2023-06-26T19:26:39.346Z,6.20
2023-06-26T19:29:12.279Z,6.95
2023-06-26T19:31:42.583Z,5.93
2023-06-26T19:34:12.909Z,5.55
2023-06-26T19:36:43.165Z,6.05
2023-06-26T19:39:14.737Z,6.57
2023-06-26T19:41:45.299Z,6.38
2023-06-26T19:44:18.195Z,5.95
2023-06-26T19:46:49.036Z,6.00
2023-06-26T19:49:19.508Z,6.10
2023-06-26T19:51:49.918Z,5.90
2023-06-26T19:54:20.205Z,6.68
2023-06-26T19:56:52.247Z,5.95
2023-06-26T19:59:26.294Z,6.20
2023-06-26T20:01:56.661Z,6.50
2023-06-26T20:04:29.888Z,5.53
2023-06-26T20:07:05.074Z,5.78
2023-06-26T20:09:37.530Z,5.70
2023-06-26T20:12:10.852Z,5.82
2023-06-26T20:14:43.792Z,6.40
2023-06-26T20:17:14.065Z,6.00
2023-06-26T20:19:45.062Z,6.93
2023-06-26T20:22:15.358Z,5.57
2023-06-26T20:24:45.699Z,5.68
2023-06-26T20:27:19.121Z,6.22
2023-06-26T20:29:51.960Z,5.63
2023-06-26T20:32:22.344Z,6.38
2023-06-26T20:34:53.001Z,6.10
2023-06-26T20:37:23.231Z,5.47
2023-06-26T20:39:54.631Z,5.68
2023-06-26T20:42:25.692Z,5.80
2023-06-26T20:44:59.846Z,5.63
2023-06-26T20:47:34.425Z,5.47
2023-06-26T20:50:05.872Z,5.57
2023-06-26T20:52:37.860Z,6.25
2023-06-26T20:55:09.675Z,6.25
2023-06-26T20:57:40.890Z,5.57
2023-06-26T21:00:15.523Z,5.72
2023-06-26T21:02:45.997Z,5.80
2023-06-26T21:05:16.442Z,5.45
2023-06-26T21:07:46.783Z,6.72
2023-06-26T21:10:20.267Z,5.88
2023-06-26T21:12:50.618Z,5.88
2023-06-26T21:15:23.670Z,5.50
2023-06-26T21:17:54.020Z,5.88
2023-06-26T21:20:24.430Z,6.13
2023-06-26T21:22:54.714Z,5.70
2023-06-26T21:25:26.053Z,6.55
2023-06-26T21:27:56.398Z,5.85
2023-06-26T21:30:29.378Z,6.28
2023-06-26T21:32:59.738Z,6.28
2023-06-26T21:35:42.672Z,5.57
2023-06-26T21:38:14.255Z,6.20
2023-06-26T21:40:44.856Z,6.00
2023-06-26T21:43:15.231Z,6.30
2023-06-26T21:45:48.406Z,5.95
2023-06-26T21:48:18.729Z,6.38
2023-06-26T21:50:49.148Z,6.13
2023-06-26T21:53:19.539Z,5.72
2023-06-26T21:55:49.934Z,6.32
2023-06-26T21:58:20.295Z,6.22
2023-06-26T22:00:56.065Z,5.85
2023-06-26T22:03:33.620Z,6.55
2023-06-26T22:06:05.172Z,6.15
2023-06-26T22:08:35.504Z,6.35
2023-06-26T22:11:05.808Z,6.15
2023-06-26T22:13:36.053Z,6.18
2023-06-26T22:18:40.450Z,6.15
2023-06-26T22:21:10.698Z,6.18
2023-06-26T22:23:41.282Z,5.93
2023-06-26T22:26:11.643Z,6.22
2023-06-26T22:28:41.903Z,6.38
2023-06-26T22:31:14.768Z,6.22
2023-06-26T22:33:45.142Z,6.50
2023-06-26T22:36:15.590Z,6.35
2023-06-26T22:38:46.027Z,6.35
2023-06-26T22:41:16.284Z,6.25
2023-06-26T22:43:46.600Z,6.57
2023-06-26T22:46:19.509Z,6.03
2023-06-26T22:48:49.765Z,5.93
2023-06-26T22:51:20.079Z,6.38
2023-06-26T22:53:52.671Z,6.55
2023-06-26T22:56:24.105Z,6.28
2023-06-26T22:58:55.690Z,6.07
2023-06-26T23:01:28.622Z,5.95
2023-06-26T23:03:59.026Z,6.15
2023-06-26T23:06:29.235Z,5.85
2023-06-26T23:08:59.456Z,6.03
2023-06-26T23:11:29.778Z,6.18
2023-06-26T23:14:00.012Z,6.30
2023-06-26T23:16:32.939Z,6.22
2023-06-26T23:19:05.157Z,6.22
2023-06-26T23:21:35.404Z,6.47
2023-06-26T23:24:05.992Z,6.88
2023-06-26T23:26:37.072Z,5.90
2023-06-26T23:29:07.555Z,6.22
2023-06-26T23:31:40.509Z,6.05
2023-06-26T23:34:10.824Z,6.32
2023-06-26T23:36:41.235Z,6.75
2023-06-26T23:39:11.586Z,6.00
2023-06-26T23:41:42.185Z,6.38
2023-06-26T23:44:13.722Z,6.38
2023-06-26T23:46:46.835Z,6.32
2023-06-26T23:49:17.712Z,5.97
2023-06-26T23:51:48.616Z,6.25
2023-06-26T23:54:21.033Z,6.55
2023-06-26T23:56:51.573Z,6.38
2023-06-26T23:59:22.504Z,7.43
